Time;durP1;ratioP1;P1;durP2;ratioP2;P2;SDS_P1;SDS_P2;PMS_P1;PMS_P2;Temp;Humidity;BMP_temperature;BMP_pressure;BME280_temperature;BME280_humidity;BME280_pressure;Samples;Min_cycle;Max_cycle;Signal;HPM_P1;HPM_P2
2023/07/02 00:00:06;;;;;;;4.40;3.60;;;;;;;25.27;66.77;100831.80;110623;1262;22826;-49
2023/07/02 00:02:36;;;;;;;6.70;4.10;;;;;;;25.28;66.83;100830.68;110645;1255;22112;-48
2023/07/02 00:05:03;;;;;;;4.60;3.70;;;;;;;25.28;66.92;100834.36;110578;1264;23222;-48
2023/07/02 00:07:30;;;;;;;3.60;3.30;;;;;;;25.28;66.90;100834.17;110628;1263;22573;-47
2023/07/02 00:09:57;;;;;;;3.50;3.20;;;;;;;25.28;66.93;100835.10;110615;1263;22608;-46
2023/07/02 00:12:23;;;;;;;4.90;3.20;;;;;;;25.28;66.82;100837.56;110599;1260;22381;-47
2023/07/02 00:14:52;;;;;;;3.40;2.90;;;;;;;25.29;66.76;100836.45;110598;1262;22165;-49
2023/07/02 00:17:20;;;;;;;3.70;3.40;;;;;;;25.29;66.54;100838.42;110663;1259;22374;-52
2023/07/02 00:19:51;;;;;;;5.20;3.20;;;;;;;25.27;66.53;100834.47;110635;1256;22856;-48
2023/07/02 00:22:18;;;;;;;4.10;3.10;;;;;;;25.27;66.50;100834.88;110576;1262;22412;-49
2023/07/02 00:24:44;;;;;;;5.00;3.10;;;;;;;25.26;66.53;100835.60;110617;1261;22415;-49
2023/07/02 00:27:11;;;;;;;4.00;2.90;;;;;;;25.26;66.47;100834.77;110656;1259;23046;-46
2023/07/02 00:29:38;;;;;;;4.50;3.10;;;;;;;25.25;66.50;100829.48;110563;1266;22326;-48
2023/07/02 00:32:05;;;;;;;3.50;3.20;;;;;;;25.25;66.40;100828.77;110590;1259;22428;-48
2023/07/02 00:34:32;;;;;;;5.80;3.30;;;;;;;25.25;66.52;100827.73;110655;1262;23150;-46
2023/07/02 00:36:59;;;;;;;5.20;3.00;;;;;;;25.25;66.49;100829.50;110567;1267;22966;-48
2023/07/02 00:39:26;;;;;;;5.10;3.00;;;;;;;25.24;66.44;100826.00;110282;1268;23118;-49
2023/07/02 00:41:52;;;;;;;4.50;3.20;;;;;;;25.24;66.65;100826.58;110641;1259;22389;-47
2023/07/02 00:44:19;;;;;;;4.60;3.30;;;;;;;25.23;66.65;100824.64;110602;1262;22736;-49
2023/07/02 00:46:50;;;;;;;3.80;3.30;;;;;;;25.24;66.68;100824.45;110586;1262;22142;-51
2023/07/02 00:49:18;;;;;;;3.90;2.80;;;;;;;25.24;66.57;100823.67;110619;1264;22809;-48
2023/07/02 00:51:45;;;;;;;3.40;2.90;;;;;;;25.25;66.69;100823.27;110687;1262;22186;-47
2023/07/02 00:54:11;;;;;;;5.30;2.90;;;;;;;25.25;66.66;100818.27;110616;1263;23123;-46
2023/07/02 00:56:38;;;;;;;4.10;3.60;;;;;;;25.26;66.79;100819.10;110633;1263;23064;-50
2023/07/02 00:59:06;;;;;;;3.80;3.00;;;;;;;25.27;66.69;100815.29;110578;1256;22408;-48
2023/07/02 01:01:37;;;;;;;7.40;3.40;;;;;;;25.28;66.69;100816.63;110616;1262;22139;-48
2023/07/02 01:04:07;;;;;;;7.00;3.30;;;;;;;25.28;66.54;100814.15;110617;1267;22375;-46
2023/07/02 01:06:35;;;;;;;4.50;3.20;;;;;;;25.28;66.42;100811.35;110674;1263;22191;-47
2023/07/02 01:09:06;;;;;;;8.40;3.80;;;;;;;25.27;66.19;100816.52;110655;1269;22124;-48
2023/07/02 01:11:34;;;;;;;4.30;3.10;;;;;;;25.26;66.06;100815.00;110614;1263;22426;-48
2023/07/02 01:14:04;;;;;;;4.80;3.60;;;;;;;25.26;66.04;100818.08;110589;1262;22409;-46
2023/07/02 01:16:32;;;;;;;3.30;3.00;;;;;;;25.25;65.81;100818.15;110713;1262;23108;-46
2023/07/02 01:19:03;;;;;;;6.60;3.10;;;;;;;25.23;65.78;100814.91;110220;1271;22625;-50
2023/07/02 01:21:33;;;;;;;4.30;3.20;;;;;;;25.21;65.69;100817.19;110193;1268;22989;-50
2023/07/02 01:24:00;;;;;;;6.50;2.90;;;;;;;25.20;65.63;100816.27;110239;1268;22318;-52
2023/07/02 01:26:30;;;;;;;5.20;3.10;;;;;;;25.19;65.45;100813.86;110240;1260;22356;-47
2023/07/02 01:28:57;;;;;;;4.00;3.00;;;;;;;25.17;65.52;100814.34;110187;1257;22182;-48
2023/07/02 01:31:25;;;;;;;5.80;3.00;;;;;;;25.16;65.55;100814.62;110270;1257;22196;-52
2023/07/02 01:33:52;;;;;;;5.20;3.10;;;;;;;25.15;65.73;100815.23;110270;1267;22842;-46
2023/07/02 01:36:19;;;;;;;7.00;3.00;;;;;;;25.15;65.76;100812.23;110280;1267;23238;-49
2023/07/02 01:38:46;;;;;;;3.40;2.90;;;;;;;25.14;65.73;100814.45;110196;1265;22160;-47
2023/07/02 01:41:13;;;;;;;3.90;3.40;;;;;;;25.13;65.61;100809.15;110223;1259;22923;-47
2023/07/02 01:43:40;;;;;;;3.80;2.90;;;;;;;25.12;65.54;100809.61;110062;1271;22892;-48
2023/07/02 01:46:06;;;;;;;4.30;2.80;;;;;;;25.11;65.42;100813.41;110223;1264;22870;-48
2023/07/02 01:48:33;;;;;;;4.00;3.10;;;;;;;25.10;65.34;100810.54;110247;1266;23118;-48
2023/07/02 01:51:00;;;;;;;5.90;3.00;;;;;;;25.07;65.38;100811.11;110365;1268;23157;-48
2023/07/02 01:53:27;;;;;;;4.50;2.90;;;;;;;25.05;65.27;100810.70;110531;1265;22448;-48
2023/07/02 01:55:53;;;;;;;5.10;2.70;;;;;;;25.02;65.22;100808.42;110593;1267;22376;-48
2023/07/02 01:58:20;;;;;;;6.80;3.40;;;;;;;25.02;65.29;100810.62;110302;1266;22493;-47
2023/07/02 02:00:47;;;;;;;5.10;3.20;;;;;;;25.01;65.42;100811.61;110698;1263;23166;-47
2023/07/02 02:03:14;;;;;;;5.90;3.40;;;;;;;24.99;65.37;100812.77;110620;1263;22160;-47
2023/07/02 02:05:41;;;;;;;5.20;3.50;;;;;;;24.97;65.24;100811.50;110585;1263;22237;-46
2023/07/02 02:08:08;;;;;;;5.20;3.00;;;;;;;24.96;65.17;100807.91;110105;1263;23073;-48
2023/07/02 02:10:36;;;;;;;5.10;2.70;;;;;;;24.94;65.38;100808.08;110595;1255;22404;-47
2023/07/02 02:13:03;;;;;;;5.90;3.50;;;;;;;24.93;65.38;100808.89;110583;1256;22420;-47
2023/07/02 02:15:32;;;;;;;4.40;3.30;;;;;;;24.91;65.41;100805.11;110347;1268;22441;-47
2023/07/02 02:17:59;;;;;;;5.70;3.50;;;;;;;24.90;65.34;100804.84;110563;1263;22841;-51
2023/07/02 02:20:26;;;;;;;4.20;3.20;;;;;;;24.89;65.10;100805.30;110586;1262;22396;-48
2023/07/02 02:22:53;;;;;;;7.90;4.00;;;;;;;24.88;65.22;100805.59;110666;1255;22990;-47
2023/07/02 02:25:20;;;;;;;2.90;2.60;;;;;;;24.85;65.25;100802.73;110573;1262;23106;-52
2023/07/02 02:27:46;;;;;;;6.30;3.70;;;;;;;24.84;65.24;100800.38;110610;1268;22140;-48
2023/07/02 02:30:13;;;;;;;3.70;2.90;;;;;;;24.83;65.21;100799.77;110619;1259;22327;-47
2023/07/02 02:32:41;;;;;;;8.80;4.00;;;;;;;24.82;65.19;100797.52;110566;1265;22413;-47
2023/07/02 02:35:09;;;;;;;7.60;3.70;;;;;;;24.81;65.13;100799.02;110281;1274;22358;-51
2023/07/02 02:37:38;;;;;;;7.80;4.00;;;;;;;24.79;64.87;100798.15;110548;1256;22432;-47
2023/07/02 02:40:09;;;;;;;5.10;3.70;;;;;;;24.77;64.70;100795.98;110612;1262;22185;-48
2023/07/02 02:42:38;;;;;;;7.90;3.90;;;;;;;24.75;64.73;100793.67;110550;1265;22310;-48
2023/07/02 02:45:06;;;;;;;6.70;3.60;;;;;;;24.73;64.67;100799.29;110568;1265;22084;-47
2023/07/02 02:47:34;;;;;;;6.40;3.30;;;;;;;24.72;64.85;100800.41;110571;1265;22425;-48
2023/07/02 02:50:01;;;;;;;6.00;3.40;;;;;;;24.71;64.83;100799.31;110550;1265;22324;-47
2023/07/02 02:52:28;;;;;;;5.60;3.50;;;;;;;24.69;65.13;100801.16;110589;1259;22378;-46
2023/07/02 02:54:55;;;;;;;6.00;3.40;;;;;;;24.69;65.09;100801.39;110620;1262;23101;-47
2023/07/02 02:57:22;;;;;;;6.10;2.80;;;;;;;24.68;65.16;100803.21;110543;1256;22370;-50
2023/07/02 02:59:49;;;;;;;5.30;3.10;;;;;;;24.68;65.28;100802.31;110634;1259;22684;-48
2023/07/02 03:02:15;;;;;;;4.80;2.90;;;;;;;24.68;65.25;100799.50;110617;1264;22413;-47
2023/07/02 03:04:44;;;;;;;5.00;3.40;;;;;;;24.69;65.43;100802.31;110561;1265;22192;-47
2023/07/02 03:07:11;;;;;;;5.40;3.40;;;;;;;24.69;65.53;100798.06;110298;1268;22913;-46
2023/07/02 03:09:39;;;;;;;4.90;3.10;;;;;;;24.69;65.68;100797.15;110518;1259;22423;-47
2023/07/02 03:12:06;;;;;;;6.40;3.50;;;;;;;24.70;65.51;100798.68;110555;1265;23165;-47
2023/07/02 03:14:33;;;;;;;5.20;3.40;;;;;;;24.70;65.56;100796.88;110602;1254;22454;-47
2023/07/02 03:17:00;;;;;;;4.10;3.10;;;;;;;24.70;65.71;100794.73;110086;1266;22130;-47
2023/07/02 03:19:27;;;;;;;3.20;2.80;;;;;;;24.72;65.69;100792.45;110604;1259;23068;-46
2023/07/02 03:21:54;;;;;;;6.10;3.30;;;;;;;24.73;65.70;100792.73;110620;1254;22416;-53
2023/07/02 03:24:22;;;;;;;6.20;2.90;;;;;;;24.74;65.62;100793.23;110576;1265;22114;-49
2023/07/02 03:26:48;;;;;;;5.10;3.20;;;;;;;24.74;65.68;100792.46;110589;1263;22346;-47
2023/07/02 03:29:16;;;;;;;3.90;3.40;;;;;;;24.75;65.56;100794.35;110583;1263;23172;-47
2023/07/02 03:31:42;;;;;;;7.00;3.20;;;;;;;24.77;65.53;100796.84;110605;1262;22161;-46
2023/07/02 03:34:09;;;;;;;6.10;3.00;;;;;;;24.78;65.53;100800.30;110651;1265;22325;-48
2023/07/02 03:36:37;;;;;;;10.40;3.00;;;;;;;24.80;65.54;100802.13;110627;1264;22272;-48
2023/07/02 03:39:04;;;;;;;6.30;2.90;;;;;;;24.83;65.80;100802.98;110581;1262;22335;-46
2023/07/02 03:41:33;;;;;;;4.00;2.60;;;;;;;24.87;66.15;100805.77;110628;1269;22192;-52
2023/07/02 03:44:00;;;;;;;3.70;3.40;;;;;;;25.01;66.82;100806.59;110423;1266;22175;-48
2023/07/02 03:46:30;;;;;;;4.60;2.80;;;;;;;25.30;66.89;100804.39;110604;1264;22285;-46
2023/07/02 03:48:57;;;;;;;3.90;2.50;;;;;;;25.74;65.66;100806.41;110278;1268;22834;-46
2023/07/02 03:51:24;;;;;;;3.70;2.40;;;;;;;26.19;64.05;100805.78;110668;1265;22476;-50
2023/07/02 03:53:50;;;;;;;3.10;2.40;;;;;;;26.61;62.50;100805.46;110626;1263;22909;-46
2023/07/02 03:56:17;;;;;;;3.60;2.70;;;;;;;27.03;60.95;100808.98;110553;1264;22336;-47
2023/07/02 03:58:44;;;;;;;3.60;2.00;;;;;;;27.45;59.43;100807.92;110637;1263;22944;-48
2023/07/02 04:01:11;;;;;;;3.00;2.10;;;;;;;27.79;58.07;100807.42;110638;1269;22365;-47
2023/07/02 04:03:38;;;;;;;3.70;2.40;;;;;;;28.08;56.76;100808.04;110611;1256;22154;-51
2023/07/02 04:06:08;;;;;;;3.60;2.10;;;;;;;28.32;55.75;100809.16;110615;1264;22126;-48
2023/07/02 04:08:35;;;;;;;4.70;2.30;;;;;;;28.46;54.76;100810.06;110585;1265;22646;-51
2023/07/02 04:11:02;;;;;;;4.40;2.80;;;;;;;28.50;54.15;100811.52;110650;1263;22955;-50
2023/07/02 04:13:29;;;;;;;6.40;2.20;;;;;;;28.43;54.04;100812.95;110547;1257;22126;-46
2023/07/02 04:15:57;;;;;;;4.00;2.50;;;;;;;28.31;54.17;100812.30;110213;1261;23030;-47
2023/07/02 04:18:23;;;;;;;4.10;2.40;;;;;;;28.18;54.43;100812.84;110409;1270;22128;-49
2023/07/02 04:20:50;;;;;;;2.70;2.20;;;;;;;28.05;54.62;100813.30;110645;1263;22216;-47
2023/07/02 04:23:17;;;;;;;2.30;2.10;;;;;;;27.92;54.75;100814.14;110266;1267;22417;-47
2023/07/02 04:25:44;;;;;;;2.50;1.90;;;;;;;27.78;54.94;100811.45;110597;1265;22354;-47
2023/07/02 04:28:31;;;;;;;2.80;2.20;;;;;;;27.61;55.39;100810.67;110555;1263;23162;-50
2023/07/02 04:30:58;;;;;;;2.30;2.00;;;;;;;27.46;55.71;100806.35;110573;1265;22113;-46
2023/07/02 04:33:24;;;;;;;2.90;2.20;;;;;;;27.32;56.07;100808.63;110628;1263;22330;-47
2023/07/02 04:35:51;;;;;;;5.40;2.80;;;;;;;27.20;56.45;100810.77;110428;1268;22417;-46
2023/07/02 04:38:18;;;;;;;3.30;2.10;;;;;;;27.08;56.77;100809.92;110565;1259;22312;-47
2023/07/02 04:40:45;;;;;;;2.80;2.00;;;;;;;26.99;57.05;100816.84;110254;1268;22880;-47
2023/07/02 04:43:12;;;;;;;4.10;2.10;;;;;;;26.91;57.32;100817.08;110413;1268;23084;-47
2023/07/02 04:45:39;;;;;;;6.40;2.20;;;;;;;26.83;57.68;100817.23;110195;1269;22409;-47
2023/07/02 04:48:06;;;;;;;3.70;3.10;;;;;;;26.77;57.85;100820.98;110461;1266;22365;-47
2023/07/02 04:50:33;;;;;;;2.70;2.10;;;;;;;26.70;58.14;100824.22;110581;1263;22332;-46
2023/07/02 04:52:59;;;;;;;5.30;2.70;;;;;;;26.66;58.36;100821.56;110605;1265;22147;-48
2023/07/02 04:55:27;;;;;;;3.80;2.30;;;;;;;26.62;58.53;100827.95;110573;1265;22202;-50
2023/07/02 04:57:53;;;;;;;3.90;2.20;;;;;;;26.60;58.75;100826.92;110623;1256;22969;-47
2023/07/02 05:00:22;;;;;;;2.60;1.80;;;;;;;26.58;58.71;100827.80;110593;1256;22149;-49
2023/07/02 05:02:49;;;;;;;3.20;2.10;;;;;;;26.57;58.92;100829.45;110711;1263;23132;-46
2023/07/02 05:05:16;;;;;;;3.70;2.30;;;;;;;26.59;59.14;100830.93;110643;1256;22464;-47
2023/07/02 05:07:43;;;;;;;3.90;2.30;;;;;;;26.63;59.46;100825.02;110588;1265;22144;-46
2023/07/02 05:10:10;;;;;;;3.50;2.30;;;;;;;26.74;59.63;100828.52;110691;1263;22594;-48
2023/07/02 05:12:37;;;;;;;4.20;2.30;;;;;;;26.92;59.46;100834.95;110624;1263;22464;-47
2023/07/02 05:15:05;;;;;;;3.20;2.20;;;;;;;27.16;59.12;100836.63;110237;1268;22337;-46
2023/07/02 05:17:34;;;;;;;4.00;2.30;;;;;;;27.49;58.45;100838.48;110291;1268;23005;-46
2023/07/02 05:20:05;;;;;;;2.40;2.00;;;;;;;27.89;57.39;100839.13;110603;1256;22120;-51
2023/07/02 05:22:32;;;;;;;2.90;2.30;;;;;;;28.32;56.13;100844.66;110568;1267;22290;-46
2023/07/02 05:24:58;;;;;;;5.10;2.00;;;;;;;28.73;55.13;100841.20;110625;1266;22323;-47
2023/07/02 05:27:25;;;;;;;2.60;1.70;;;;;;;29.10;53.99;100840.98;110406;1266;22214;-47
2023/07/02 05:29:52;;;;;;;2.20;1.60;;;;;;;29.40;53.00;100842.85;110594;1263;23038;-46
2023/07/02 05:32:19;;;;;;;2.20;1.90;;;;;;;29.61;52.10;100840.56;110556;1265;22297;-47
2023/07/02 05:34:46;;;;;;;2.90;2.00;;;;;;;29.76;51.45;100840.34;110630;1264;23015;-47
2023/07/02 05:37:13;;;;;;;3.70;2.10;;;;;;;29.85;51.07;100841.79;110623;1263;22344;-46
2023/07/02 05:39:41;;;;;;;4.20;1.80;;;;;;;29.89;50.66;100839.17;110594;1255;22128;-46
2023/07/02 05:42:09;;;;;;;3.60;2.00;;;;;;;29.89;50.39;100841.83;110601;1255;22362;-46
2023/07/02 05:44:37;;;;;;;4.60;2.10;;;;;;;29.88;50.40;100844.86;110593;1269;22489;-46
2023/07/02 05:47:03;;;;;;;3.90;2.30;;;;;;;29.86;50.42;100847.34;110628;1266;22154;-48
2023/07/02 05:49:30;;;;;;;3.30;2.00;;;;;;;29.88;50.61;100844.52;110571;1264;23139;-48
2023/07/02 05:51:57;;;;;;;3.60;2.00;;;;;;;29.92;50.43;100842.79;110574;1263;22291;-48
2023/07/02 05:54:24;;;;;;;3.20;2.10;;;;;;;30.01;50.29;100842.29;110276;1273;22141;-46
2023/07/02 05:56:51;;;;;;;2.70;1.90;;;;;;;30.16;49.83;100842.49;110466;1259;22428;-49
2023/07/02 05:59:19;;;;;;;4.10;2.20;;;;;;;30.36;49.34;100839.11;110617;1269;22381;-48
2023/07/02 06:01:46;;;;;;;4.80;2.30;;;;;;;30.61;48.66;100843.70;110484;1262;22373;-49
2023/07/02 06:04:13;;;;;;;2.90;1.60;;;;;;;30.84;48.26;100839.86;110625;1263;22385;-48
2023/07/02 06:06:41;;;;;;;2.80;1.80;;;;;;;31.01;47.64;100835.05;110598;1263;22867;-49
2023/07/02 06:09:08;;;;;;;2.90;1.50;;;;;;;31.09;47.41;100840.59;110641;1264;22474;-48
2023/07/02 06:11:38;;;;;;;2.10;1.70;;;;;;;31.10;47.19;100839.41;110604;1263;22443;-47
2023/07/02 06:14:04;;;;;;;3.90;1.80;;;;;;;31.03;47.20;100840.70;110558;1265;22324;-47
2023/07/02 06:16:31;;;;;;;3.00;2.00;;;;;;;30.96;47.34;100842.32;110644;1263;22142;-49
2023/07/02 06:18:58;;;;;;;4.20;1.90;;;;;;;30.95;47.59;100838.67;110121;1271;22192;-48
2023/07/02 06:21:29;;;;;;;4.50;2.00;;;;;;;30.98;47.40;100837.32;110616;1263;22274;-48
2023/07/02 06:23:57;;;;;;;2.50;1.90;;;;;;;31.00;47.34;100838.03;110563;1269;22203;-48
2023/07/02 06:26:24;;;;;;;7.10;2.50;;;;;;;30.98;47.42;100831.44;110552;1270;22150;-46
2023/07/02 06:28:51;;;;;;;3.30;2.20;;;;;;;30.95;47.20;100831.36;110598;1263;22989;-46
2023/07/02 06:31:18;;;;;;;3.50;1.90;;;;;;;30.92;47.25;100833.41;110580;1256;22144;-46
2023/07/02 06:33:45;;;;;;;4.40;2.00;;;;;;;30.88;47.32;100830.86;110569;1263;22236;-47
2023/07/02 06:36:13;;;;;;;2.20;1.90;;;;;;;30.79;47.42;100829.48;110587;1264;23108;-46
2023/07/02 06:38:43;;;;;;;5.10;1.90;;;;;;;30.65;47.59;100828.80;110565;1261;22399;-48
2023/07/02 06:41:10;;;;;;;2.60;2.20;;;;;;;30.49;47.77;100827.02;110589;1255;22128;-52
2023/07/02 06:43:37;;;;;;;4.20;2.10;;;;;;;30.33;48.14;100824.63;110582;1267;22188;-48
2023/07/02 06:46:03;;;;;;;4.70;2.20;;;;;;;30.17;48.63;100820.70;110599;1263;22118;-46
2023/07/02 06:48:31;;;;;;;5.40;2.40;;;;;;;30.02;49.08;100827.23;110578;1256;22850;-47
2023/07/02 06:50:58;;;;;;;2.80;1.80;;;;;;;29.90;49.64;100826.07;110581;1263;22118;-52
2023/07/02 06:53:25;;;;;;;3.40;1.90;;;;;;;29.81;50.05;100825.89;110574;1263;22379;-47
2023/07/02 06:55:52;;;;;;;5.50;2.40;;;;;;;29.73;50.15;100826.90;110608;1266;22400;-46
2023/07/02 06:58:19;;;;;;;2.40;2.10;;;;;;;29.67;50.59;100827.08;110631;1261;22137;-48
2023/07/02 07:00:46;;;;;;;3.60;2.00;;;;;;;29.63;50.66;100821.24;110577;1263;22135;-47
2023/07/02 07:03:14;;;;;;;3.90;2.10;;;;;;;29.61;50.86;100822.52;110673;1263;22160;-47
2023/07/02 07:05:41;;;;;;;3.60;2.00;;;;;;;29.61;51.21;100822.48;110406;1267;23106;-47
2023/07/02 07:08:08;;;;;;;3.00;1.90;;;;;;;29.63;51.18;100822.18;110568;1263;22293;-48
2023/07/02 07:10:34;;;;;;;4.00;1.80;;;;;;;29.65;51.31;100821.79;110528;1265;22301;-50
2023/07/02 07:13:02;;;;;;;3.00;2.20;;;;;;;29.66;51.40;100823.98;110632;1254;22135;-47
2023/07/02 07:15:33;;;;;;;5.10;2.00;;;;;;;29.67;51.34;100821.05;110584;1251;22340;-47
2023/07/02 07:18:01;;;;;;;4.10;2.10;;;;;;;29.68;51.37;100820.21;110610;1263;22291;-50
2023/07/02 07:20:29;;;;;;;2.60;1.80;;;;;;;29.71;51.51;100818.30;110207;1269;22277;-47
2023/07/02 07:22:56;;;;;;;2.80;2.00;;;;;;;29.75;51.42;100822.18;110526;1273;22350;-47
2023/07/02 07:25:23;;;;;;;3.70;1.90;;;;;;;29.79;51.48;100823.35;110607;1263;22129;-47
2023/07/02 07:27:49;;;;;;;3.70;2.10;;;;;;;29.84;51.44;100820.89;110551;1263;22149;-48
2023/07/02 07:30:22;;;;;;;3.90;1.90;;;;;;;29.89;51.34;100822.00;110570;1266;22158;-48
2023/07/02 07:32:52;;;;;;;2.80;1.90;;;;;;;29.93;51.37;100822.48;110253;1266;22888;-48
2023/07/02 07:35:22;;;;;;;4.10;1.90;;;;;;;29.96;51.23;100822.70;110636;1258;22400;-48
2023/07/02 07:37:49;;;;;;;4.70;2.60;;;;;;;29.97;51.35;100820.11;110601;1261;22439;-52
2023/07/02 07:40:16;;;;;;;4.20;2.10;;;;;;;29.97;51.31;100821.90;110656;1263;22893;-47
2023/07/02 07:42:43;;;;;;;3.70;1.90;;;;;;;29.97;51.45;100820.17;110626;1260;23026;-48
2023/07/02 07:45:11;;;;;;;3.70;1.90;;;;;;;29.95;51.38;100822.62;110600;1263;22992;-47
2023/07/02 07:47:38;;;;;;;2.70;2.20;;;;;;;29.96;51.37;100824.20;110198;1270;22131;-47
2023/07/02 07:50:10;;;;;;;5.50;2.30;;;;;;;29.95;51.19;100827.52;110608;1263;22356;-47
2023/07/02 07:52:38;;;;;;;5.10;2.40;;;;;;;29.94;51.49;100824.25;110563;1251;22250;-50
2023/07/02 07:55:06;;;;;;;2.70;2.10;;;;;;;29.94;51.44;100832.63;110594;1264;22346;-52
2023/07/02 07:57:34;;;;;;;3.00;1.90;;;;;;;29.94;51.60;100829.41;110451;1260;22445;-46
2023/07/02 08:00:07;;;;;;;4.60;2.50;;;;;;;29.94;51.49;100829.76;110551;1261;22225;-46
2023/07/02 08:02:44;;;;;;;2.80;1.90;;;;;;;29.94;51.61;100831.40;110371;1262;22570;-45
2023/07/02 08:05:11;;;;;;;3.10;1.90;;;;;;;29.93;51.59;100832.89;110581;1267;23103;-46
2023/07/02 08:07:39;;;;;;;3.60;2.20;;;;;;;29.91;51.56;100832.52;110549;1256;22348;-47
2023/07/02 08:10:07;;;;;;;3.60;2.20;;;;;;;29.89;51.61;100828.10;110590;1260;22911;-46
2023/07/02 08:12:34;;;;;;;4.80;2.10;;;;;;;29.85;51.43;100832.78;110583;1267;22605;-47
2023/07/02 08:15:01;;;;;;;4.00;2.20;;;;;;;29.82;51.70;100830.81;110583;1264;23226;-48
2023/07/02 08:17:30;;;;;;;5.80;2.40;;;;;;;29.77;51.75;100830.41;110552;1261;22409;-47
2023/07/02 08:19:57;;;;;;;5.00;2.40;;;;;;;29.74;51.92;100830.69;110596;1251;22621;-46
2023/07/02 08:22:24;;;;;;;4.70;2.30;;;;;;;29.73;51.95;100829.02;110521;1270;22279;-46
2023/07/02 08:24:52;;;;;;;3.60;2.40;;;;;;;29.73;51.99;100831.91;110569;1260;22386;-47
2023/07/02 08:27:19;;;;;;;3.40;2.00;;;;;;;29.75;52.06;100836.89;110382;1270;23022;-47
2023/07/02 08:29:47;;;;;;;4.50;2.50;;;;;;;29.77;51.95;100838.29;110577;1260;22781;-46
2023/07/02 08:32:15;;;;;;;2.70;2.00;;;;;;;29.80;51.92;100837.65;110536;1261;22474;-46
2023/07/02 08:34:41;;;;;;;4.10;2.20;;;;;;;29.82;51.80;100837.92;110557;1261;22304;-47
2023/07/02 08:37:08;;;;;;;4.90;2.20;;;;;;;29.85;51.94;100841.61;110587;1263;22284;-47
2023/07/02 08:39:37;;;;;;;2.70;2.10;;;;;;;29.87;51.80;100844.77;110396;1256;22483;-47
2023/07/02 08:42:04;;;;;;;3.50;2.30;;;;;;;29.90;51.87;100844.79;110618;1260;22327;-49
2023/07/02 08:44:32;;;;;;;2.70;1.90;;;;;;;29.94;51.60;100840.13;110634;1263;22388;-46
2023/07/02 08:46:59;;;;;;;4.40;2.10;;;;;;;29.97;51.58;100838.70;110439;1260;22215;-50
2023/07/02 08:49:26;;;;;;;5.00;2.20;;;;;;;30.00;51.65;100835.93;110578;1256;22196;-47
2023/07/02 08:51:53;;;;;;;3.00;2.40;;;;;;;30.02;51.33;100837.64;110588;1261;23146;-51
2023/07/02 08:54:20;;;;;;;4.50;1.90;;;;;;;30.04;51.22;100838.33;110519;1254;22828;-49
2023/07/02 08:56:47;;;;;;;3.10;2.00;;;;;;;30.04;51.22;100837.85;110582;1263;22760;-46
2023/07/02 08:59:14;;;;;;;4.20;2.10;;;;;;;30.03;51.13;100838.85;110570;1263;22903;-46
2023/07/02 09:01:47;;;;;;;3.80;2.00;;;;;;;30.02;51.05;100836.98;110592;1263;22161;-46
2023/07/02 09:04:21;;;;;;;2.70;2.00;;;;;;;29.98;51.40;100835.89;110612;1251;22140;-46
2023/07/02 09:06:48;;;;;;;4.60;2.20;;;;;;;29.96;51.30;100836.17;110599;1264;23091;-47
2023/07/02 09:09:15;;;;;;;4.30;2.20;;;;;;;29.94;51.43;100837.02;110603;1259;22283;-47
2023/07/02 09:11:49;;;;;;;4.70;2.00;;;;;;;29.93;51.42;100836.25;110575;1267;22113;-47
2023/07/02 09:14:27;;;;;;;3.30;2.30;;;;;;;29.93;51.52;100839.47;110573;1260;22115;-46
2023/07/02 09:17:06;;;;;;;5.40;2.60;;;;;;;29.94;51.50;100841.23;110269;1264;22780;-48
2023/07/02 09:19:33;;;;;;;3.20;2.20;;;;;;;29.92;51.43;100846.71;110532;1260;22154;-48
2023/07/02 09:22:03;;;;;;;3.40;1.90;;;;;;;29.92;51.38;100844.80;110579;1263;22238;-49
2023/07/02 09:24:31;;;;;;;3.50;2.30;;;;;;;29.92;51.59;100844.29;110569;1259;22736;-50
2023/07/02 09:26:59;;;;;;;3.50;1.90;;;;;;;29.93;51.76;100845.94;110583;1259;22397;-47
2023/07/02 09:29:33;;;;;;;5.50;2.40;;;;;;;29.95;51.84;100844.52;110630;1251;22481;-46
2023/07/02 09:32:01;;;;;;;3.20;2.60;;;;;;;29.97;51.85;100844.77;110602;1260;22298;-47
2023/07/02 09:34:31;;;;;;;4.70;2.00;;;;;;;30.00;51.70;100844.33;110549;1268;22129;-52
2023/07/02 09:36:59;;;;;;;6.00;2.30;;;;;;;30.04;51.61;100840.73;110572;1251;22114;-46
2023/07/02 09:39:29;;;;;;;3.60;2.60;;;;;;;30.08;51.31;100842.27;110570;1260;22141;-47
2023/07/02 09:41:58;;;;;;;4.80;2.30;;;;;;;30.11;51.06;100841.59;110150;1273;22138;-46
2023/07/02 09:44:29;;;;;;;4.10;2.40;;;;;;;30.14;50.94;100841.98;110604;1259;23060;-47
2023/07/02 09:47:03;;;;;;;5.80;2.60;;;;;;;30.16;50.79;100837.80;110551;1263;23134;-46
2023/07/02 09:49:41;;;;;;;3.40;2.20;;;;;;;30.16;50.65;100839.08;110422;1260;22848;-48
2023/07/02 09:52:09;;;;;;;4.50;2.20;;;;;;;30.13;50.57;100837.59;110566;1265;22175;-47
2023/07/02 09:54:37;;;;;;;5.10;2.20;;;;;;;30.09;50.70;100834.40;110583;1263;22432;-47
2023/07/02 09:57:06;;;;;;;5.60;2.20;;;;;;;30.06;50.66;100840.52;110206;1259;22155;-47
2023/07/02 09:59:32;;;;;;;5.00;2.50;;;;;;;30.02;50.92;100841.29;110616;1261;22929;-46
2023/07/02 10:01:59;;;;;;;3.00;2.30;;;;;;;29.99;51.05;100843.17;110580;1266;22360;-48
2023/07/02 10:04:26;;;;;;;4.20;2.50;;;;;;;29.97;50.85;100843.52;110538;1264;22133;-47
2023/07/02 10:06:54;;;;;;;2.90;1.90;;;;;;;29.96;50.80;100844.56;110203;1264;22924;-47
2023/07/02 10:09:36;;;;;;;3.80;2.30;;;;;;;29.95;50.97;100844.80;110567;1262;22156;-47
2023/07/02 10:12:14;;;;;;;;;;;;;;;29.95;50.96;100846.42;110605;1266;22393;-47
2023/07/02 10:14:45;;;;;;;4.90;2.40;;;;;;;29.96;50.97;100845.27;110544;1261;22122;-45
2023/07/02 10:17:23;;;;;;;3.60;2.20;;;;;;;29.97;50.83;100844.94;110579;1261;22365;-47
2023/07/02 10:19:53;;;;;;;3.00;2.10;;;;;;;30.01;50.77;100846.38;110236;1265;22178;-51
2023/07/02 10:22:20;;;;;;;4.10;2.50;;;;;;;30.05;50.59;100848.82;110375;1267;22159;-47
2023/07/02 10:25:04;;;;;;;3.30;2.20;;;;;;;30.08;50.38;100849.22;110600;1259;23103;-51
2023/07/02 10:27:39;;;;;;;3.70;2.80;;;;;;;30.11;50.26;100847.44;110555;1260;22405;-47
2023/07/02 10:30:07;;;;;;;4.00;2.70;;;;;;;30.13;50.23;100845.98;110550;1255;22925;-50
2023/07/02 10:32:36;;;;;;;3.80;2.20;;;;;;;30.15;50.10;100845.58;110618;1259;22347;-47
2023/07/02 10:35:13;;;;;;;5.10;2.50;;;;;;;30.16;50.12;100841.94;110610;1259;22397;-47
2023/07/02 10:37:41;;;;;;;3.20;2.30;;;;;;;30.17;50.05;100843.20;110605;1262;22397;-51
2023/07/02 10:40:09;;;;;;;4.10;2.60;;;;;;;30.18;49.85;100841.58;110621;1259;22372;-51
2023/07/02 10:42:46;;;;;;;5.10;2.80;;;;;;;30.18;49.95;100841.38;110246;1267;22467;-47
2023/07/02 10:45:13;;;;;;;7.10;2.50;;;;;;;30.18;50.02;100840.27;110588;1254;22887;-50
2023/07/02 10:47:41;;;;;;;7.30;2.60;;;;;;;30.19;49.95;100839.50;110500;1264;22402;-47
2023/07/02 10:50:20;;;;;;;5.00;2.80;;;;;;;30.19;49.74;100837.86;110391;1258;22985;-47
2023/07/02 10:52:50;;;;;;;6.50;2.50;;;;;;;30.19;49.74;100839.50;110468;1255;22331;-48
2023/07/02 10:55:19;;;;;;;3.90;2.60;;;;;;;30.17;49.68;100835.70;110539;1266;22294;-48
2023/07/02 10:57:47;;;;;;;3.60;2.40;;;;;;;30.15;49.65;100837.33;110591;1255;22225;-48
2023/07/02 11:00:14;;;;;;;3.50;2.90;;;;;;;30.14;49.75;100836.58;110647;1259;22146;-47
2023/07/02 11:02:42;;;;;;;3.50;2.80;;;;;;;30.13;50.11;100832.91;110537;1256;22135;-49
2023/07/02 11:05:12;;;;;;;3.80;2.40;;;;;;;30.13;50.07;100830.95;110541;1267;22274;-48
2023/07/02 11:07:42;;;;;;;4.80;2.30;;;;;;;30.14;50.15;100830.50;110620;1260;22406;-46
2023/07/02 11:10:09;;;;;;;4.20;2.30;;;;;;;30.16;50.16;100826.88;110596;1252;22466;-47
2023/07/02 11:12:38;;;;;;;5.60;2.30;;;;;;;30.18;49.99;100828.89;110537;1260;23118;-47
2023/07/02 11:15:09;;;;;;;3.60;2.20;;;;;;;30.19;50.14;100829.27;110395;1262;22313;-48
2023/07/02 11:17:41;;;;;;;4.20;2.20;;;;;;;30.21;50.24;100821.00;110586;1260;22468;-48
2023/07/02 11:20:09;;;;;;;5.70;2.40;;;;;;;30.23;50.03;100824.90;110630;1266;22381;-51